Time;durP1;ratioP1;P1;durP2;ratioP2;P2;SDS_P1;SDS_P2;PMS_P1;PMS_P2;Temp;Humidity;BMP_temperature;BMP_pressure;BME280_temperature;BME280_humidity;BME280_pressure;Samples;Min_cycle;Max_cycle;Signal;HPM_P1;HPM_P2
2022/03/21 00:01:01;;;;;;;14.48;10.02;;;-0.40;99.90;;;;;;5057848;28;20140;-86
2022/03/21 00:03:29;;;;;;;22.50;10.67;;;-0.50;99.90;;;;;;5074542;28;20045;-87
2022/03/21 00:05:57;;;;;;;16.85;9.63;;;-0.40;99.90;;;;;;5075319;28;20044;-86
2022/03/21 00:08:24;;;;;;;14.13;9.90;;;-0.50;99.90;;;;;;5057935;28;20050;-87
2022/03/21 00:10:54;;;;;;;13.00;9.65;;;-0.50;99.90;;;;;;5075278;28;20511;-87
2022/03/21 00:13:22;;;;;;;19.25;10.50;;;-0.50;99.90;;;;;;5057744;28;20063;-86
2022/03/21 00:15:52;;;;;;;17.90;9.45;;;-0.50;99.90;;;;;;5057600;28;20048;-87
2022/03/21 00:18:19;;;;;;;15.50;9.60;;;-0.50;99.90;;;;;;5057724;28;20102;-86
2022/03/21 00:20:49;;;;;;;14.45;9.23;;;-0.50;99.90;;;;;;5057488;28;20135;-88
2022/03/21 00:23:17;;;;;;;15.35;10.05;;;-0.50;99.90;;;;;;5057630;28;20155;-87
2022/03/21 00:25:44;;;;;;;17.80;10.15;;;-0.60;99.90;;;;;;5057664;28;20475;-87
2022/03/21 00:28:12;;;;;;;17.88;11.10;;;-0.60;99.90;;;;;;5057458;28;20048;-88
2022/03/21 00:30:40;;;;;;;16.33;10.23;;;-0.70;99.90;;;;;;5057198;28;20059;-87
2022/03/21 00:33:07;;;;;;;15.10;9.65;;;-0.70;99.90;;;;;;5075047;28;20044;-87
2022/03/21 00:35:35;;;;;;;16.92;10.30;;;-0.70;99.90;;;;;;5057183;28;20521;-87
2022/03/21 00:38:04;;;;;;;15.65;10.20;;;-0.70;99.90;;;;;;5074761;28;20054;-86
2022/03/21 00:40:31;;;;;;;19.45;10.35;;;-0.80;99.90;;;;;;5057162;28;20048;-87
2022/03/21 00:42:58;;;;;;;15.43;10.40;;;-0.90;99.90;;;;;;5057083;28;20044;-88
2022/03/21 00:45:26;;;;;;;17.27;10.32;;;-0.90;99.90;;;;;;5057000;28;20139;-87
2022/03/21 00:47:54;;;;;;;14.45;10.07;;;-0.90;99.90;;;;;;5057583;28;20144;-88
2022/03/21 00:50:24;;;;;;;19.88;11.07;;;-0.90;99.90;;;;;;5079582;28;20059;-88
2022/03/21 00:52:54;;;;;;;18.42;10.82;;;-0.90;99.90;;;;;;5056907;28;20144;-88
2022/03/21 00:55:22;;;;;;;22.42;11.35;;;-0.90;99.90;;;;;;5056966;28;20070;-88
2022/03/21 00:57:50;;;;;;;17.58;10.52;;;-1.00;99.90;;;;;;5056822;28;20048;-87
2022/03/21 01:00:19;;;;;;;15.27;10.40;;;-1.00;99.90;;;;;;5056730;28;20052;-88
2022/03/21 01:02:46;;;;;;;18.10;9.63;;;-1.10;99.90;;;;;;5056837;28;20054;-88
2022/03/21 01:05:14;;;;;;;20.02;10.68;;;-1.10;99.90;;;;;;5058372;28;20058;-89
2022/03/21 01:07:41;;;;;;;19.35;10.95;;;-1.10;99.90;;;;;;5056644;28;20075;-89
2022/03/21 01:10:12;;;;;;;15.77;9.88;;;-1.20;99.90;;;;;;5056577;28;20052;-88
2022/03/21 01:12:39;;;;;;;18.50;10.13;;;-1.20;99.90;;;;;;5056427;28;20485;-88
2022/03/21 01:15:08;;;;;;;14.88;10.00;;;-1.20;99.90;;;;;;5056502;28;20127;-89
2022/03/21 01:17:34;;;;;;;13.68;10.30;;;-1.30;99.90;;;;;;5056694;28;20304;-89
2022/03/21 01:20:02;;;;;;;15.35;10.25;;;-1.20;99.90;;;;;;5056362;28;20515;-88
2022/03/21 01:22:29;;;;;;;14.27;10.02;;;-1.30;99.90;;;;;;5056721;28;20074;-89
2022/03/21 01:24:57;;;;;;;17.05;11.05;;;-1.30;99.90;;;;;;5056496;28;20048;-89
2022/03/21 01:27:23;;;;;;;17.15;11.25;;;-1.40;99.90;;;;;;5056685;28;20048;-89
2022/03/21 01:29:50;;;;;;;14.98;10.07;;;-1.40;99.90;;;;;;5056710;28;20070;-89
2022/03/21 01:32:17;;;;;;;14.75;10.50;;;-1.40;99.90;;;;;;5056569;28;20048;-89
2022/03/21 01:34:44;;;;;;;17.27;10.40;;;-1.40;99.90;;;;;;5056456;28;20044;-89
2022/03/21 01:37:11;;;;;;;19.42;10.68;;;-1.50;99.90;;;;;;5056507;28;20139;-89
2022/03/21 01:39:37;;;;;;;18.77;10.68;;;-1.50;99.90;;;;;;5055698;28;20046;-90
2022/03/21 01:42:05;;;;;;;17.08;9.90;;;-1.50;99.90;;;;;;5055808;28;20056;-90
2022/03/21 01:44:32;;;;;;;18.05;10.82;;;-1.50;99.90;;;;;;5056151;28;20131;-90
2022/03/21 01:46:58;;;;;;;17.85;11.55;;;-1.50;99.90;;;;;;5056095;28;20052;-91
2022/03/21 01:49:26;;;;;;;18.65;11.27;;;-1.50;99.90;;;;;;5055979;28;20056;-90
2022/03/21 01:51:53;;;;;;;17.80;11.40;;;-1.50;99.90;;;;;;5056033;28;20552;-90
2022/03/21 01:57:08;;;;;;;16.48;10.40;;;-1.50;99.90;;;;;;5073624;28;20059;-91
2022/03/21 01:59:36;;;;;;;16.50;10.93;;;-1.50;99.90;;;;;;5056067;28;20127;-91
2022/03/21 02:02:05;;;;;;;20.88;11.55;;;-1.60;99.90;;;;;;5056143;28;20052;-91
2022/03/21 02:04:35;;;;;;;16.63;10.70;;;-1.60;99.90;;;;;;5062713;28;20085;-91
2022/03/21 02:07:02;;;;;;;16.75;10.63;;;-1.60;99.90;;;;;;5057918;28;20135;-90
2022/03/21 02:09:29;;;;;;;15.50;10.23;;;-1.60;99.90;;;;;;5055811;28;20048;-91
2022/03/21 02:11:57;;;;;;;16.90;10.68;;;-1.60;99.90;;;;;;5055796;28;20403;-92
2022/03/21 02:14:24;;;;;;;17.55;10.63;;;-1.60;99.90;;;;;;5056053;28;20048;-91
2022/03/21 02:16:51;;;;;;;18.40;10.73;;;-1.70;99.90;;;;;;5055408;28;20087;-92
2022/03/21 02:19:26;;;;;;;15.07;10.55;;;-1.70;99.90;;;;;;5055856;28;20079;-92
2022/03/21 02:22:22;;;;;;;17.10;10.77;;;-1.80;99.90;;;;;;5055619;28;20140;-92
2022/03/21 02:24:52;;;;;;;16.90;10.77;;;-1.80;99.90;;;;;;5055812;28;20484;-92
2022/03/21 02:27:19;;;;;;;16.25;11.30;;;-1.80;99.90;;;;;;5055809;28;20143;-92
2022/03/21 02:29:48;;;;;;;18.77;10.55;;;-1.90;99.90;;;;;;5055746;28;20091;-92
2022/03/21 02:32:15;;;;;;;19.40;11.38;;;-1.90;99.90;;;;;;5055608;28;20534;-92
2022/03/21 02:34:45;;;;;;;18.45;10.73;;;-2.00;99.90;;;;;;5055624;28;20110;-92
2022/03/21 02:37:17;;;;;;;17.50;10.88;;;-2.00;99.90;;;;;;5055727;28;20135;-93
2022/03/21 02:39:45;;;;;;;20.25;11.10;;;-2.00;99.90;;;;;;5055574;28;20062;-92
2022/03/21 02:42:13;;;;;;;18.70;11.73;;;-2.10;99.90;;;;;;5055698;28;20448;-93
2022/03/21 02:44:44;;;;;;;22.13;11.32;;;-2.10;99.90;;;;;;5056122;28;20489;-93
2022/03/21 02:47:10;;;;;;;21.65;11.50;;;-2.10;99.90;;;;;;5055338;28;20058;-93
2022/03/21 02:49:37;;;;;;;19.55;11.00;;;-2.20;99.90;;;;;;5055698;28;20058;-92
2022/03/21 02:52:06;;;;;;;25.02;12.18;;;-2.10;99.90;;;;;;5055495;28;20053;-93
2022/03/21 02:54:33;;;;;;;18.77;11.80;;;-2.20;99.90;;;;;;5055331;28;20520;-93
2022/03/21 02:57:01;;;;;;;18.63;11.68;;;-2.20;99.90;;;;;;5055321;28;20052;-92
2022/03/21 02:59:28;;;;;;;24.88;11.70;;;-2.20;99.90;;;;;;5055488;28;20403;-93
2022/03/21 03:01:55;;;;;;;27.20;12.40;;;-2.20;99.90;;;;;;5058940;28;20052;-93
2022/03/21 03:04:26;;;;;;;18.20;10.55;;;-2.20;99.90;;;;;;5059375;28;20059;-94
2022/03/21 03:06:53;;;;;;;18.75;11.18;;;-2.20;99.90;;;;;;5059389;28;20148;-93
2022/03/21 03:09:21;;;;;;;19.58;11.02;;;-2.30;99.90;;;;;;5059378;28;20084;-93
2022/03/21 03:11:48;;;;;;;22.25;11.90;;;-2.30;99.90;;;;;;5059142;28;20048;-94
2022/03/21 03:14:15;;;;;;;23.10;12.30;;;-2.30;99.90;;;;;;5059335;28;20143;-94
2022/03/21 03:16:42;;;;;;;18.92;11.80;;;-2.30;99.90;;;;;;5059099;28;20056;-94
2022/03/21 03:19:09;;;;;;;18.73;12.02;;;-2.30;99.90;;;;;;5065780;28;20055;-94
2022/03/21 03:21:46;;;;;;;17.38;10.85;;;-2.30;99.90;;;;;;5068560;28;20060;-94
2022/03/21 03:24:13;;;;;;;22.05;11.35;;;-2.30;99.90;;;;;;5059013;28;20052;-94
2022/03/21 03:26:40;;;;;;;19.60;10.50;;;-2.40;99.90;;;;;;5058501;28;20044;-93
2022/03/21 03:29:06;;;;;;;20.65;11.55;;;-2.40;99.90;;;;;;5058683;28;20048;-93
2022/03/21 03:31:37;;;;;;;18.23;10.80;;;-2.40;99.90;;;;;;5058863;28;20137;-94
2022/03/21 03:34:04;;;;;;;24.40;11.68;;;-2.40;99.90;;;;;;5058745;28;20064;-95
2022/03/21 03:36:32;;;;;;;15.80;11.25;;;-2.50;99.90;;;;;;5058456;28;20120;-95
2022/03/21 03:38:59;;;;;;;19.17;10.77;;;-2.50;99.90;;;;;;5058654;28;20136;-94
2022/03/21 03:41:27;;;;;;;20.67;12.13;;;-2.60;99.90;;;;;;5058274;28;20143;-94
2022/03/21 03:43:53;;;;;;;23.80;12.63;;;-2.60;99.90;;;;;;5058712;28;20098;-94
2022/03/21 03:46:21;;;;;;;23.08;11.77;;;-2.70;99.90;;;;;;5058299;28;20056;-94
2022/03/21 03:48:48;;;;;;;24.73;12.68;;;-2.70;99.90;;;;;;5058365;28;20060;-94
2022/03/21 03:51:15;;;;;;;24.52;12.60;;;-2.70;99.90;;;;;;5058179;28;20048;-94
2022/03/21 03:53:42;;;;;;;21.42;10.90;;;-2.80;99.90;;;;;;5057952;28;20075;-95
2022/03/21 03:56:09;;;;;;;25.85;16.10;;;-2.70;99.90;;;;;;5058264;28;20045;-94
2022/03/21 03:58:37;;;;;;;22.60;13.23;;;-2.80;99.90;;;;;;5058086;28;20135;-94
2022/03/21 04:01:05;;;;;;;21.35;11.13;;;-2.80;99.90;;;;;;5058133;28;20140;-95
2022/03/21 04:03:45;;;;;;;21.77;11.73;;;-2.90;99.90;;;;;;5058184;28;20074;-93
2022/03/21 04:06:22;;;;;;;23.15;12.23;;;-2.80;99.90;;;;;;5058209;28;20052;-95
2022/03/21 04:08:50;;;;;;;19.42;11.82;;;-2.80;99.90;;;;;;5057816;28;20055;-94
2022/03/21 04:11:18;;;;;;;28.60;12.02;;;-2.80;99.90;;;;;;5057512;28;20058;-95
2022/03/21 04:13:46;;;;;;;25.38;12.23;;;-2.80;99.90;;;;;;5058833;28;20132;-95
2022/03/21 04:16:14;;;;;;;25.50;12.02;;;-2.90;99.90;;;;;;5063369;28;20068;-95
2022/03/21 04:18:41;;;;;;;20.13;11.05;;;-2.80;99.90;;;;;;5065486;28;20047;-95
2022/03/21 04:21:26;;;;;;;19.42;11.43;;;-2.90;99.90;;;;;;5067603;28;20520;-95
2022/03/21 04:23:53;;;;;;;21.33;11.48;;;-2.90;99.90;;;;;;5060458;28;20527;-94
2022/03/21 04:26:20;;;;;;;17.80;12.10;;;-3.00;99.90;;;;;;5059206;28;20138;-95
2022/03/21 04:28:49;;;;;;;19.25;11.52;;;-3.10;99.90;;;;;;5058416;28;20116;-95
2022/03/21 04:31:16;;;;;;;23.55;12.05;;;-3.20;99.90;;;;;;5058115;28;20502;-95
2022/03/21 04:33:42;;;;;;;21.88;12.68;;;-3.30;99.90;;;;;;5064280;28;20143;-95
2022/03/21 04:36:10;;;;;;;22.25;12.38;;;-3.30;99.90;;;;;;5066987;28;20053;-95
2022/03/21 04:38:36;;;;;;;19.83;12.93;;;-3.40;99.90;;;;;;5060568;28;20552;-96
2022/03/21 04:41:03;;;;;;;19.55;11.88;;;-3.50;99.90;;;;;;5058065;28;20131;-95
2022/03/21 04:43:30;;;;;;;21.13;11.52;;;-3.60;99.90;;;;;;5057429;28;20060;-96
2022/03/21 04:45:57;;;;;;;22.55;12.38;;;-3.60;99.90;;;;;;5057203;28;20064;-95
2022/03/21 04:48:24;;;;;;;19.92;12.57;;;-3.70;99.90;;;;;;5057610;28;20044;-96
2022/03/21 04:50:51;;;;;;;23.23;11.93;;;-3.80;99.90;;;;;;5057534;28;20132;-96
2022/03/21 04:53:18;;;;;;;21.38;12.63;;;-3.70;99.90;;;;;;5057384;28;20140;-95
2022/03/21 04:55:45;;;;;;;23.13;12.15;;;-3.90;99.90;;;;;;5057353;28;20044;-96
2022/03/21 04:58:12;;;;;;;25.42;12.82;;;-3.90;99.90;;;;;;5057817;28;20135;-95
2022/03/21 05:00:39;;;;;;;29.15;13.40;;;-3.90;99.90;;;;;;5057166;28;20053;-95
2022/03/21 05:03:07;;;;;;;26.38;14.75;;;-3.90;99.90;;;;;;5057955;28;20053;-96
2022/03/21 05:05:42;;;;;;;24.58;14.95;;;-3.90;99.90;;;;;;5059490;28;20492;-96
2022/03/21 05:08:09;;;;;;;24.05;15.18;;;-3.80;99.90;;;;;;5058491;28;20075;-96
2022/03/21 05:10:50;;;;;;;24.65;12.93;;;-3.80;99.90;;;;;;5074458;28;20052;-96
2022/03/21 05:13:17;;;;;;;24.35;13.25;;;-3.80;99.90;;;;;;5058938;28;20058;-95
2022/03/21 05:15:43;;;;;;;22.08;13.38;;;-3.80;99.90;;;;;;5058648;28;20079;-96
2022/03/21 05:18:10;;;;;;;25.75;14.63;;;-3.80;99.90;;;;;;5058390;28;20075;-96
2022/03/21 05:20:37;;;;;;;27.77;15.32;;;-3.80;99.90;;;;;;5059169;28;20080;-95
2022/03/21 05:31:21;;;;;;;34.22;14.27;;;-3.70;99.90;;;;;;5076593;28;20131;-96
2022/03/21 05:36:33;;;;;;;31.98;13.85;;;-3.70;99.90;;;;;;5076052;28;20519;-96
2022/03/21 05:39:00;;;;;;;28.48;13.40;;;-3.60;99.90;;;;;;5058918;28;20048;-96
2022/03/21 05:41:27;;;;;;;26.90;14.40;;;-3.70;99.90;;;;;;5058754;28;20076;-95
2022/03/21 05:43:54;;;;;;;23.77;14.98;;;-3.60;99.90;;;;;;5058619;28;20052;-95
2022/03/21 05:46:22;;;;;;;29.52;14.93;;;-3.70;99.90;;;;;;5059910;28;20087;-96
2022/03/21 05:48:54;;;;;;;27.85;14.90;;;-3.70;99.90;;;;;;5070617;28;20060;-95
2022/03/21 05:51:30;;;;;;;24.77;14.77;;;-3.60;99.90;;;;;;5066668;28;20566;-96
2022/03/21 05:53:59;;;;;;;22.80;14.40;;;-3.60;99.90;;;;;;5057972;28;20060;-95
2022/03/21 05:57:03;;;;;;;30.80;15.70;;;-3.50;99.90;;;;;;5073961;28;20098;-95
2022/03/21 06:02:16;;;;;;;36.03;15.90;;;-3.40;99.90;;;;;;5075771;28;20048;-96
2022/03/21 06:04:43;;;;;;;35.83;16.95;;;-3.40;99.90;;;;;;5057579;28;20056;-95
2022/03/21 06:07:11;;;;;;;44.55;15.77;;;-3.40;99.90;;;;;;5041349;28;20044;-95
2022/03/21 06:09:38;;;;;;;34.15;14.93;;;-3.20;99.90;;;;;;5057503;28;20058;-95
2022/03/21 06:12:06;;;;;;;30.83;15.15;;;-3.10;99.90;;;;;;5058489;28;20377;-95
2022/03/21 06:14:34;;;;;;;30.42;14.55;;;-3.00;99.90;;;;;;5042080;28;20049;-95
2022/03/21 06:17:01;;;;;;;55.63;14.63;;;-2.90;99.90;;;;;;5056842;28;20049;-94
2022/03/21 06:19:27;;;;;;;33.15;13.13;;;-2.80;99.90;;;;;;5074249;28;20094;-95
2022/03/21 06:21:55;;;;;;;30.23;13.02;;;-2.70;99.90;;;;;;5056818;28;20131;-94
2022/03/21 06:24:23;;;;;;;27.40;13.73;;;-2.60;99.90;;;;;;5056967;28;20563;-95
2022/03/21 06:26:50;;;;;;;20.52;11.27;;;-2.50;99.90;;;;;;5056566;28;20477;-95
2022/03/21 06:29:17;;;;;;;17.77;11.40;;;-2.50;99.90;;;;;;5074665;28;20151;-95
2022/03/21 06:31:44;;;;;;;24.35;11.90;;;-2.40;99.90;;;;;;5073903;28;20049;-95
2022/03/21 06:34:13;;;;;;;23.42;12.23;;;-2.30;99.90;;;;;;5057894;28;20044;-95
2022/03/21 06:36:40;;;;;;;20.08;11.70;;;-2.30;99.90;;;;;;5078516;28;20055;-94
2022/03/21 06:39:06;;;;;;;23.23;11.27;;;-2.10;99.90;;;;;;5078731;28;20062;-93
2022/03/21 06:41:33;;;;;;;28.05;12.95;;;-2.00;99.90;;;;;;5060393;28;20044;-94
2022/03/21 06:44:00;;;;;;;64.10;12.90;;;-1.50;99.90;;;;;;5060443;28;20052;-93
2022/03/21 06:46:27;;;;;;;23.83;11.40;;;-1.00;99.90;;;;;;5059831;28;20057;-92
2022/03/21 06:48:54;;;;;;;27.00;11.60;;;0.00;99.90;;;;;;5077415;28;20048;-91
2022/03/21 06:51:25;;;;;;;21.77;11.27;;;0.60;99.90;;;;;;5060533;28;20140;-91
2022/03/21 06:53:52;;;;;;;15.52;9.52;;;1.20;99.90;;;;;;5059984;28;20055;-91
2022/03/21 06:56:18;;;;;;;43.28;11.10;;;1.40;99.90;;;;;;5059350;28;20048;-90
2022/03/21 06:58:45;;;;;;;43.72;11.48;;;1.70;99.90;;;;;;5058230;28;20139;-91
2022/03/21 07:01:12;;;;;;;34.60;11.55;;;2.00;99.90;;;;;;5056474;28;20055;-90
2022/03/21 07:03:39;;;;;;;32.53;10.60;;;2.10;99.90;;;;;;5070298;28;20044;-89
2022/03/21 07:06:06;;;;;;;28.83;9.73;;;2.50;99.90;;;;;;5060588;28;20079;-89
2022/03/21 07:08:32;;;;;;;46.72;11.80;;;3.20;99.90;;;;;;5055895;28;20053;-88
2022/03/21 07:10:59;;;;;;;159.60;18.33;;;3.20;99.90;;;;;;5055477;28;20049;-88
2022/03/21 07:13:29;;;;;;;105.18;15.60;;;3.10;99.90;;;;;;5057163;28;20064;-88
2022/03/21 07:15:56;;;;;;;29.77;10.45;;;3.40;99.90;;;;;;5057934;28;20072;-88
2022/03/21 07:18:25;;;;;;;35.58;12.93;;;3.90;99.90;;;;;;5056811;28;20052;-87
2022/03/21 07:20:52;;;;;;;43.30;13.73;;;4.10;99.90;;;;;;5057405;28;20045;-87
2022/03/21 07:23:18;;;;;;;44.83;12.00;;;4.70;99.90;;;;;;5038928;28;20128;-87
2022/03/21 07:25:45;;;;;;;36.40;10.50;;;5.90;99.90;;;;;;5038769;28;20132;-87
2022/03/21 07:28:12;;;;;;;26.00;10.23;;;6.80;96.00;;;;;;5056026;28;20052;-87
2022/03/21 07:30:39;;;;;;;30.58;9.73;;;7.20;93.20;;;;;;5038248;28;20074;-88
2022/03/21 07:33:06;;;;;;;24.25;9.02;;;8.10;86.80;;;;;;5055592;28;20053;-88
2022/03/21 07:35:33;;;;;;;32.53;10.75;;;8.80;81.80;;;;;;5038208;28;20051;-88
2022/03/21 07:38:01;;;;;;;55.15;11.70;;;9.40;76.00;;;;;;5055698;28;20052;-88
2022/03/21 07:40:27;;;;;;;22.33;9.93;;;10.20;74.60;;;;;;5038343;28;20045;-88
2022/03/21 07:42:54;;;;;;;29.33;9.63;;;10.90;68.70;;;;;;5038224;28;20107;-88
2022/03/21 07:48:07;;;;;;;29.60;10.35;;;11.40;67.80;;;;;;5056067;28;20049;-88
2022/03/21 07:50:33;;;;;;;28.30;10.07;;;12.90;63.40;;;;;;5038061;28;20055;-87
2022/03/21 07:53:01;;;;;;;26.70;11.15;;;12.80;59.20;;;;;;5038557;28;20548;-88
2022/03/21 07:55:31;;;;;;;22.63;9.48;;;12.80;57.40;;;;;;5038381;28;20095;-88
2022/03/21 07:57:59;;;;;;;16.48;9.77;;;13.00;56.90;;;;;;5038347;28;20536;-88
2022/03/21 08:00:27;;;;;;;18.10;8.63;;;13.50;54.80;;;;;;5037419;28;20055;-88
2022/03/21 08:02:54;;;;;;;19.92;9.30;;;14.40;53.60;;;;;;5038211;28;20049;-87
2022/03/21 08:05:21;;;;;;;15.10;9.05;;;14.20;53.50;;;;;;5038136;28;20132;-88
2022/03/21 08:07:48;;;;;;;21.48;8.85;;;15.10;52.90;;;;;;5055661;28;20509;-87
2022/03/21 08:10:16;;;;;;;14.18;7.22;;;16.10;51.50;;;;;;5037451;28;20087;-88
2022/03/21 08:12:42;;;;;;;24.33;8.50;;;16.40;50.30;;;;;;5055716;28;20452;-88
2022/03/21 08:15:12;;;;;;;29.70;8.65;;;15.90;49.40;;;;;;5055744;28;20049;-87
2022/03/21 08:17:55;;;;;;;20.55;7.72;;;17.00;48.30;;;;;;5056390;28;20056;-87
2022/03/21 08:20:25;;;;;;;9.95;7.53;;;17.80;45.70;;;;;;5042736;28;20132;-88
2022/03/21 08:22:52;;;;;;;8.00;6.40;;;18.60;43.10;;;;;;5038507;28;20095;-88
2022/03/21 08:25:22;;;;;;;9.52;6.60;;;18.80;43.20;;;;;;5037463;28;20075;-88
2022/03/21 08:27:50;;;;;;;13.60;7.53;;;20.10;43.20;;;;;;5037757;28;20051;-88
2022/03/21 08:30:18;;;;;;;12.10;7.20;;;20.90;40.70;;;;;;5055438;28;20052;-88
2022/03/21 08:32:46;;;;;;;9.48;7.28;;;19.70;42.10;;;;;;5054772;28;20084;-88
2022/03/21 08:35:14;;;;;;;10.25;7.40;;;20.50;40.00;;;;;;5037635;28;20041;-88
2022/03/21 08:37:41;;;;;;;12.65;7.03;;;19.40;41.00;;;;;;5036318;28;20386;-88
2022/03/21 08:40:09;;;;;;;7.47;6.70;;;19.10;42.00;;;;;;5037062;28;20386;-88
2022/03/21 08:42:37;;;;;;;12.45;6.70;;;19.60;40.80;;;;;;5054588;28;20543;-88
2022/03/21 08:45:05;;;;;;;14.25;6.82;;;21.40;39.10;;;;;;5054841;28;20476;-88
2022/03/21 08:47:33;;;;;;;7.03;5.80;;;20.50;38.80;;;;;;5036863;28;20164;-88
2022/03/21 08:50:00;;;;;;;25.23;6.78;;;21.10;38.70;;;;;;5037304;28;20049;-88
2022/03/21 08:52:27;;;;;;;7.25;6.10;;;20.20;39.50;;;;;;5054606;28;20053;-88
2022/03/21 08:54:54;;;;;;;14.70;6.43;;;20.90;38.10;;;;;;5037274;28;20049;-88
2022/03/21 08:57:21;;;;;;;9.68;6.40;;;22.60;37.30;;;;;;5037004;28;20048;-88
2022/03/21 08:59:48;;;;;;;11.45;6.53;;;23.20;36.00;;;;;;5037353;28;20471;-88
2022/03/21 09:02:17;;;;;;;12.63;6.25;;;22.70;35.30;;;;;;5036791;28;20467;-88
2022/03/21 09:04:45;;;;;;;10.45;6.40;;;23.40;35.40;;;;;;5054423;28;20416;-88
2022/03/21 09:07:15;;;;;;;6.65;5.95;;;23.10;33.90;;;;;;5054697;28;20045;-88
2022/03/21 09:09:42;;;;;;;7.88;6.63;;;23.70;33.90;;;;;;5036266;28;20412;-87
2022/03/21 09:12:10;;;;;;;9.07;6.53;;;23.90;33.50;;;;;;5036903;28;20044;-88
2022/03/21 09:14:37;;;;;;;41.22;8.63;;;23.80;33.60;;;;;;5036937;28;20052;-88
2022/03/21 09:17:04;;;;;;;106.47;14.75;;;25.20;33.10;;;;;;5054310;28;20059;-88
2022/03/21 09:19:31;;;;;;;104.60;14.93;;;26.60;31.40;;;;;;5036886;28;20048;-88
2022/03/21 09:21:59;;;;;;;25.23;7.95;;;26.80;31.80;;;;;;5036848;28;20048;-87
2022/03/21 09:24:27;;;;;;;19.67;7.72;;;27.50;30.00;;;;;;5035634;28;20132;-87
2022/03/21 09:26:54;;;;;;;21.30;8.10;;;26.80;30.10;;;;;;5052855;28;20129;-88
2022/03/21 09:29:21;;;;;;;18.20;7.10;;;28.10;29.40;;;;;;5054059;28;20095;-88
2022/03/21 09:31:48;;;;;;;8.55;6.30;;;27.40;29.30;;;;;;5036689;28;20045;-88
2022/03/21 09:34:17;;;;;;;16.40;6.57;;;26.50;29.60;;;;;;5062491;28;20052;-88
2022/03/21 09:36:44;;;;;;;6.80;6.10;;;27.00;29.10;;;;;;5055060;28;20053;-88
2022/03/21 09:39:12;;;;;;;9.23;6.18;;;26.20;29.70;;;;;;5054252;28;20485;-87
2022/03/21 09:41:40;;;;;;;5.88;5.25;;;25.00;30.40;;;;;;5035856;28;20049;-87
2022/03/21 09:44:09;;;;;;;6.28;5.68;;;25.30;31.00;;;;;;5036537;28;20131;-88
2022/03/21 09:46:41;;;;;;;6.55;5.80;;;25.30;31.10;;;;;;5036189;28;20531;-88
2022/03/21 09:49:15;;;;;;;8.70;6.15;;;25.80;29.40;;;;;;5036122;28;20055;-87
2022/03/21 09:51:43;;;;;;;8.43;6.10;;;25.60;30.30;;;;;;5034646;28;20048;-87
2022/03/21 09:54:10;;;;;;;7.65;5.90;;;25.20;29.50;;;;;;5035235;28;20493;-87
2022/03/21 09:56:37;;;;;;;14.43;6.10;;;25.90;30.00;;;;;;5053276;28;20132;-87
2022/03/21 09:59:04;;;;;;;6.30;5.63;;;25.00;29.80;;;;;;5036094;28;20100;-87
2022/03/21 10:01:33;;;;;;;7.57;5.97;;;24.90;30.60;;;;;;5036010;28;20084;-88
2022/03/21 10:04:01;;;;;;;7.68;5.82;;;24.90;30.00;;;;;;5036236;28;20045;-88
2022/03/21 10:06:31;;;;;;;7.68;5.78;;;25.60;30.70;;;;;;5035968;28;20539;-88
2022/03/21 10:09:13;;;;;;;6.72;5.85;;;25.60;29.00;;;;;;5035178;28;20069;-87
2022/03/21 10:11:51;;;;;;;7.80;5.82;;;25.60;29.40;;;;;;5035821;28;20144;-87
2022/03/21 10:14:36;;;;;;;6.88;5.75;;;25.90;30.40;;;;;;5035731;28;20136;-88
2022/03/21 10:17:12;;;;;;;7.70;6.13;;;25.50;29.10;;;;;;5035815;28;20049;-88
2022/03/21 10:19:48;;;;;;;7.97;5.88;;;25.80;29.10;;;;;;5053205;28;20055;-88
2022/03/21 10:22:17;;;;;;;9.85;6.03;;;25.70;29.00;;;;;;5035815;28;20081;-88
2022/03/21 10:24:46;;;;;;;10.75;6.15;;;25.30;29.80;;;;;;5035597;28;20049;-88
2022/03/21 10:27:33;;;;;;;13.07;6.75;;;25.90;30.10;;;;;;5036051;28;20049;-88
2022/03/21 10:30:07;;;;;;;13.23;6.63;;;26.00;29.20;;;;;;5052864;28;20056;-87
2022/03/21 10:32:42;;;;;;;10.68;6.80;;;25.00;28.10;;;;;;5035763;28;20048;-88
2022/03/21 10:35:22;;;;;;;24.02;7.22;;;25.00;29.30;;;;;;5035478;28;20482;-88
2022/03/21 10:37:51;;;;;;;9.68;6.38;;;25.60;29.20;;;;;;5035748;28;20106;-88
2022/03/21 10:40:33;;;;;;;7.65;5.97;;;26.10;28.50;;;;;;5035471;28;20041;-88
2022/03/21 10:43:05;;;;;;;19.92;7.32;;;27.30;28.10;;;;;;5053374;28;20053;-88
2022/03/21 10:45:41;;;;;;;7.97;6.05;;;27.80;27.30;;;;;;5035332;28;20053;-88
2022/03/21 10:48:14;;;;;;;6.93;6.22;;;27.00;27.80;;;;;;5035747;28;20095;-87
2022/03/21 10:50:47;;;;;;;15.80;7.30;;;25.40;28.60;;;;;;5042822;28;20626;-87
2022/03/21 10:53:21;;;;;;;11.73;7.15;;;24.30;29.30;;;;;;5053613;28;20045;-88
2022/03/21 10:56:09;;;;;;;7.97;6.75;;;24.10;28.60;;;;;;5035427;28;20488;-88
2022/03/21 10:58:37;;;;;;;7.30;6.07;;;24.30;29.30;;;;;;5053008;28;20056;-88
2022/03/21 11:01:15;;;;;;;7.57;6.22;;;25.60;29.50;;;;;;5035193;28;20132;-87
2022/03/21 11:03:49;;;;;;;7.80;5.63;;;24.30;28.90;;;;;;5035352;28;20071;-88
2022/03/21 11:06:18;;;;;;;8.13;7.05;;;24.10;29.60;;;;;;5035394;28;20053;-88
2022/03/21 11:08:47;;;;;;;7.22;6.32;;;22.70;31.00;;;;;;5052291;28;20515;-87
2022/03/21 11:11:15;;;;;;;7.28;6.57;;;22.90;32.30;;;;;;5052450;28;20053;-88
2022/03/21 11:13:42;;;;;;;8.43;6.75;;;23.40;31.10;;;;;;5052595;28;20131;-87
2022/03/21 11:16:09;;;;;;;8.65;6.53;;;21.80;31.60;;;;;;5035489;28;20081;-88
2022/03/21 11:18:39;;;;;;;6.72;6.13;;;22.30;33.10;;;;;;5048986;28;20045;-88
2022/03/21 11:21:11;;;;;;;8.70;6.68;;;23.60;31.00;;;;;;5035832;28;20040;-88
2022/03/21 11:23:39;;;;;;;6.72;6.03;;;23.10;29.90;;;;;;5038819;28;20448;-88
2022/03/21 11:26:14;;;;;;;7.80;6.95;;;24.50;31.50;;;;;;5038330;28;20127;-88
2022/03/21 11:29:00;;;;;;;9.68;6.63;;;24.70;28.90;;;;;;5038517;28;20051;-88
2022/03/21 11:31:47;;;;;;;6.55;5.93;;;24.70;29.10;;;;;;5038643;28;20053;-86
2022/03/21 11:34:22;;;;;;;10.52;6.13;;;27.10;29.20;;;;;;5038377;28;20045;-87
2022/03/21 11:36:50;;;;;;;7.18;6.38;;;27.30;28.50;;;;;;5038885;28;20055;-88
2022/03/21 11:39:18;;;;;;;7.60;6.00;;;28.00;27.90;;;;;;5056142;28;20564;-87
2022/03/21 11:42:08;;;;;;;7.47;6.07;;;29.40;26.70;;;;;;5038814;28;20052;-87
2022/03/21 11:44:39;;;;;;;9.77;6.88;;;29.40;27.00;;;;;;5038987;28;20501;-86
2022/03/21 11:47:24;;;;;;;13.25;6.80;;;28.30;26.30;;;;;;5038183;28;20059;-87
2022/03/21 11:49:53;;;;;;;8.13;6.22;;;28.20;27.10;;;;;;5038576;28;20049;-86
2022/03/21 11:52:21;;;;;;;7.25;6.38;;;27.60;27.20;;;;;;5055760;28;20099;-87
2022/03/21 11:54:48;;;;;;;8.35;6.47;;;26.30;27.80;;;;;;5038222;28;20055;-87
2022/03/21 11:57:27;;;;;;;11.23;6.88;;;27.00;28.60;;;;;;5055819;28;20086;-86
2022/03/21 11:59:58;;;;;;;8.32;6.53;;;26.90;28.20;;;;;;5038348;28;20052;-86
2022/03/21 12:02:25;;;;;;;9.10;6.50;;;27.30;28.50;;;;;;5035041;28;20064;-87
2022/03/21 12:05:02;;;;;;;8.40;6.40;;;26.40;27.40;;;;;;5048404;28;20048;-87
2022/03/21 12:07:31;;;;;;;6.65;5.93;;;24.70;28.60;;;;;;5039637;28;20053;-87
2022/03/21 12:09:58;;;;;;;7.75;6.80;;;25.40;29.90;;;;;;5038250;28;20131;-87
2022/03/21 12:12:48;;;;;;;8.50;6.65;;;26.40;30.20;;;;;;5037923;28;20056;-87
2022/03/21 12:15:17;;;;;;;7.25;6.55;;;24.80;28.90;;;;;;5024997;28;20045;-86
2022/03/21 12:17:49;;;;;;;9.27;5.90;;;25.00;28.00;;;;;;5037954;28;20497;-87
2022/03/21 12:20:18;;;;;;;11.55;6.63;;;26.00;28.20;;;;;;5037931;28;20085;-86
2022/03/21 12:23:14;;;;;;;9.52;7.65;;;25.50;29.40;;;;;;5040103;28;20055;-87
2022/03/21 12:25:45;;;;;;;9.27;7.75;;;23.60;31.30;;;;;;5037254;28;20481;-86
2022/03/21 12:28:21;;;;;;;9.88;7.47;;;22.50;32.80;;;;;;5055390;28;20480;-87
2022/03/21 12:30:48;;;;;;;14.32;7.22;;;22.40;31.80;;;;;;5037860;28;20118;-86
2022/03/21 12:33:18;;;;;;;9.50;8.15;;;22.90;32.20;;;;;;5054677;28;20075;-87
2022/03/21 12:35:45;;;;;;;12.70;8.20;;;22.30;33.00;;;;;;5037335;28;20051;-87
2022/03/21 12:38:16;;;;;;;19.80;7.78;;;21.50;33.40;;;;;;5054773;28;20048;-88
2022/03/21 12:40:59;;;;;;;9.23;7.45;;;20.80;33.50;;;;;;5037481;28;20071;-87
2022/03/21 12:43:32;;;;;;;9.70;6.97;;;20.30;34.00;;;;;;5036992;28;20053;-87
2022/03/21 12:46:05;;;;;;;11.88;7.00;;;20.30;35.90;;;;;;5038771;28;20136;-87
2022/03/21 12:48:43;;;;;;;12.27;8.13;;;20.70;35.60;;;;;;5058009;28;20454;-87
2022/03/21 12:51:13;;;;;;;11.38;10.07;;;20.50;34.50;;;;;;5057179;28;20119;-87
2022/03/21 12:53:45;;;;;;;11.35;7.65;;;19.70;35.20;;;;;;5056983;28;20504;-86
2022/03/21 12:56:17;;;;;;;8.93;8.02;;;19.10;36.30;;;;;;5074682;28;20415;-87
2022/03/21 12:58:46;;;;;;;8.38;7.50;;;18.60;37.10;;;;;;5056932;28;20044;-87
2022/03/21 13:01:19;;;;;;;8.40;7.60;;;18.30;38.10;;;;;;5056642;28;20044;-87
2022/03/21 13:03:47;;;;;;;9.88;8.18;;;18.70;38.00;;;;;;5056763;28;20045;-87